Hotevilla, Arizona
Current Conditions -  °F | °C
As of 8:56 PM on Wednesday 28 Jan 2015 (Local Time) from KINW Reporting Station
Clear Clear  
Wind Chill: 43°   Ceiling: Unl
Heat Index: 46°   Visibility: 10mi
Dew Point: 34°   Wind: 6mph
Humidity: 63%   Direction: 270°W
Pressure: 30.24"   Gusts: NA
Location:  35.93°N, 110.67°W
Report Text: KINW 290356Z AUTO 27005KT 10SM CLR 08/01 A3024 RMK AO2 SLP235 T00780011
Loading
Personal Weather Stations






























Interactive Weather Map New forecast layout! Learn more

10-Day Weather Forecast

Advertisements
Track Severe Weather on mobile